createdAt,value
2018-11-10T00:01:04.095Z,99387.18
2018-11-10T00:03:33.675Z,99384.52
2018-11-10T00:06:04.757Z,99379.52
2018-11-10T00:08:34.782Z,99377.47
2018-11-10T00:11:05.989Z,99374.52
2018-11-10T00:13:37.193Z,99377.95
2018-11-10T00:16:06.941Z,99378.00
2018-11-10T00:18:38.079Z,99377.04
2018-11-10T00:21:08.859Z,99371.05
2018-11-10T00:23:38.419Z,99378.78
2018-11-10T00:26:09.765Z,99385.48
2018-11-10T00:28:42.058Z,99387.08
2018-11-10T00:31:17.594Z,99389.98
2018-11-10T00:33:47.965Z,99397.91
2018-11-10T00:36:18.374Z,99393.77
2018-11-10T00:38:51.438Z,99392.03
2018-11-10T00:41:24.801Z,99386.54
2018-11-10T00:43:55.144Z,99392.60
2018-11-10T00:46:25.990Z,99402.78
2018-11-10T00:48:56.140Z,99399.30
2018-11-10T00:51:27.134Z,99408.02
2018-11-10T00:53:58.185Z,99410.57
2018-11-10T00:56:27.929Z,99410.49
2018-11-10T00:58:58.889Z,99409.06
2018-11-10T01:01:29.025Z,99408.67
2018-11-10T01:03:59.305Z,99394.16
2018-11-10T01:06:30.255Z,99403.09
2018-11-10T01:09:01.154Z,99393.73
2018-11-10T01:11:32.015Z,99395.91
2018-11-10T01:14:12.140Z,99397.73
2018-11-10T01:16:42.201Z,99392.11
2018-11-10T01:19:14.086Z,99389.20
2018-11-10T01:21:45.113Z,99387.08
2018-11-10T01:24:15.888Z,99384.09
2018-11-10T01:26:45.587Z,99387.05
2018-11-10T01:29:20.003Z,99392.65
2018-11-10T01:31:50.262Z,99394.47
2018-11-10T01:34:21.191Z,99394.94
2018-11-10T01:36:52.381Z,99395.90
2018-11-10T01:39:22.361Z,99408.17
2018-11-10T01:41:53.090Z,99405.58
2018-11-10T01:44:26.974Z,99403.80
2018-11-10T01:46:57.501Z,99397.48
2018-11-10T01:49:28.226Z,99396.32
2018-11-10T01:51:59.376Z,99387.77
2018-11-10T01:54:29.255Z,99386.54
2018-11-10T01:57:00.292Z,99394.20
2018-11-10T01:59:30.329Z,99393.84
2018-11-10T02:02:01.469Z,99390.44
2018-11-10T02:04:31.421Z,99386.19
2018-11-10T02:07:02.545Z,99377.67
2018-11-10T02:09:32.475Z,99377.67
2018-11-10T02:12:04.382Z,99377.75
2018-11-10T02:14:35.445Z,99374.38
2018-11-10T02:17:07.742Z,99377.78
2018-11-10T02:19:38.633Z,99378.64
2018-11-10T02:22:08.640Z,99376.93
2018-11-10T02:24:38.231Z,99376.44
2018-11-10T02:27:14.631Z,99376.05
2018-11-10T02:29:44.646Z,99367.58
2018-11-10T02:32:16.544Z,99362.08
2018-11-10T02:34:47.394Z,99359.92
2018-11-10T02:37:17.552Z,99359.09
2018-11-10T02:39:47.641Z,99354.35
2018-11-10T02:42:18.425Z,99346.41
2018-11-10T02:44:55.484Z,99349.32
2018-11-10T02:47:26.455Z,99338.80
2018-11-10T02:49:57.473Z,99348.61
2018-11-10T02:52:28.478Z,99349.92
2018-11-10T02:54:58.527Z,99349.43
2018-11-10T02:57:29.618Z,99345.21
2018-11-10T02:59:59.612Z,99338.83
2018-11-10T03:02:30.807Z,99333.69
2018-11-10T03:05:01.580Z,99337.13
2018-11-10T03:07:32.443Z,99331.17
2018-11-10T03:10:03.142Z,99337.55
2018-11-10T03:12:32.894Z,99335.53
2018-11-10T03:15:05.255Z,99337.59
2018-11-10T03:17:36.963Z,99338.13
2018-11-10T03:20:13.205Z,99334.12
2018-11-10T03:22:45.210Z,99329.90
2018-11-10T03:25:14.998Z,99323.45
2018-11-10T03:27:45.057Z,99314.98
2018-11-10T03:30:18.574Z,99313.34
2018-11-10T03:32:49.678Z,99315.71
2018-11-10T03:35:19.737Z,99312.34
2018-11-10T03:37:49.771Z,99304.30
2018-11-10T03:40:20.736Z,99301.17
2018-11-10T03:42:51.800Z,99298.70
2018-11-10T03:45:21.871Z,99294.70
2018-11-10T03:47:52.855Z,99286.23
2018-11-10T03:50:22.736Z,99289.55
2018-11-10T03:52:56.697Z,99289.98
2018-11-10T03:55:27.885Z,99292.11
2018-11-10T03:57:57.855Z,99294.70
2018-11-10T04:00:29.105Z,99295.14
2018-11-10T04:02:59.669Z,99297.22
2018-11-10T04:05:30.904Z,99295.14
2018-11-10T04:08:02.004Z,99297.69
2018-11-10T04:10:33.023Z,99300.20
2018-11-10T04:13:04.962Z,99292.11
2018-11-10T04:15:36.074Z,99299.30
2018-11-10T04:18:06.037Z,99291.18
2018-11-10T04:20:37.909Z,99291.13
2018-11-10T04:23:09.185Z,99294.06
2018-11-10T04:25:38.837Z,99294.50
2018-11-10T04:28:09.057Z,99295.73
2018-11-10T04:30:38.623Z,99303.73
2018-11-10T04:33:15.858Z,99301.18
2018-11-10T04:35:46.890Z,99293.94
2018-11-10T04:38:17.538Z,99282.79
2018-11-10T04:40:47.811Z,99290.88
2018-11-10T04:43:18.337Z,99296.37
2018-11-10T04:45:47.932Z,99303.22
2018-11-10T04:48:19.350Z,99302.28
2018-11-10T04:50:49.988Z,99299.77
2018-11-10T04:53:19.997Z,99300.58
2018-11-10T04:55:51.262Z,99301.34
2018-11-10T04:58:21.941Z,99306.92
2018-11-10T05:00:52.491Z,99303.95
2018-11-10T05:03:23.129Z,99306.11
2018-11-10T05:05:54.146Z,99307.39
2018-11-10T05:08:24.163Z,99310.75
2018-11-10T05:10:55.246Z,99305.04
2018-11-10T05:13:25.306Z,99310.14
2018-11-10T05:15:56.180Z,99307.55
2018-11-10T05:18:27.195Z,99302.76
2018-11-10T05:20:58.326Z,99302.67
2018-11-10T05:23:29.061Z,99305.36
2018-11-10T05:25:59.116Z,99306.55
2018-11-10T05:28:30.310Z,99303.42
2018-11-10T05:31:01.335Z,99303.09
2018-11-10T05:33:35.532Z,99306.92
2018-11-10T05:36:08.397Z,99300.03
2018-11-10T05:38:38.649Z,99307.70
2018-11-10T05:41:09.948Z,99310.34
2018-11-10T05:43:46.155Z,99313.27
2018-11-10T05:46:19.163Z,99304.81
2018-11-10T05:48:49.631Z,99304.19
2018-11-10T05:51:20.530Z,99305.94
2018-11-10T05:53:50.888Z,99301.20
2018-11-10T05:56:21.407Z,99300.30
2018-11-10T05:58:51.426Z,99302.38
2018-11-10T06:01:22.657Z,99303.70
2018-11-10T06:03:53.126Z,99299.54
2018-11-10T06:06:23.605Z,99300.77
2018-11-10T06:08:56.983Z,99300.03
2018-11-10T06:11:33.431Z,99299.98
2018-11-10T06:14:04.682Z,99303.76
2018-11-10T06:16:35.758Z,99307.02
2018-11-10T06:19:05.723Z,99314.36
2018-11-10T06:21:36.450Z,99312.14
2018-11-10T06:24:07.772Z,99316.39
2018-11-10T06:26:37.548Z,99320.65
2018-11-10T06:29:08.570Z,99312.98
2018-11-10T06:31:38.788Z,99317.25
2018-11-10T06:34:09.474Z,99318.09
2018-11-10T06:36:39.172Z,99324.05
2018-11-10T06:39:12.637Z,99323.96
2018-11-10T06:41:44.621Z,99318.05
2018-11-10T06:44:15.654Z,99316.96
2018-11-10T06:46:45.640Z,99321.94
2018-11-10T06:49:16.640Z,99316.77
2018-11-10T06:51:49.555Z,99324.11
2018-11-10T06:54:21.297Z,99324.48
2018-11-10T06:56:51.795Z,99331.59
2018-11-10T06:59:22.388Z,99335.08
2018-11-10T07:01:52.114Z,99332.16
2018-11-10T07:04:22.510Z,99332.48
2018-11-10T07:06:53.769Z,99335.09
2018-11-10T07:09:23.719Z,99334.14
2018-11-10T07:11:57.557Z,99330.87
2018-11-10T07:14:28.785Z,99328.70
2018-11-10T07:16:58.803Z,99329.82
2018-11-10T07:19:29.698Z,99324.81
2018-11-10T07:22:00.590Z,99318.09
2018-11-10T07:24:30.993Z,99319.70
2018-11-10T07:27:01.647Z,99319.60
2018-11-10T07:29:31.705Z,99319.27
2018-11-10T07:32:02.102Z,99317.00
2018-11-10T07:34:32.919Z,99317.80
2018-11-10T07:37:04.052Z,99312.25
2018-11-10T07:39:34.906Z,99318.12
2018-11-10T07:42:04.804Z,99315.06
2018-11-10T07:44:35.886Z,99313.41
2018-11-10T07:47:06.295Z,99319.39
2018-11-10T07:49:37.755Z,99322.79
2018-11-10T07:52:08.078Z,99324.34
2018-11-10T07:54:39.142Z,99321.52
2018-11-10T07:57:09.127Z,99322.27
2018-11-10T07:59:38.905Z,99325.37
2018-11-10T08:02:12.291Z,99323.23
2018-11-10T08:04:41.962Z,99328.23
2018-11-10T08:07:14.055Z,99322.69
2018-11-10T08:09:44.960Z,99324.27
2018-11-10T08:12:15.059Z,99317.15
2018-11-10T08:14:45.964Z,99325.13
2018-11-10T08:17:15.898Z,99326.09
2018-11-10T08:19:47.064Z,99328.22
2018-11-10T08:22:17.502Z,99323.37
2018-11-10T08:24:48.047Z,99321.34
2018-11-10T08:27:18.069Z,99309.88
2018-11-10T08:29:48.996Z,99317.56
2018-11-10T08:32:19.285Z,99313.15
2018-11-10T08:34:50.390Z,99307.11
2018-11-10T08:37:20.055Z,99311.87
2018-11-10T08:39:54.974Z,99318.31
2018-11-10T08:42:27.204Z,99319.27
2018-11-10T08:44:58.115Z,99321.39
2018-11-10T08:47:29.185Z,99321.41
2018-11-10T08:49:59.419Z,99322.69
2018-11-10T08:52:30.137Z,99319.97
2018-11-10T08:55:01.340Z,99316.66
2018-11-10T08:57:32.207Z,99315.43
2018-11-10T09:00:05.007Z,99315.59
2018-11-10T09:02:34.963Z,99315.64
2018-11-10T09:05:05.826Z,99312.66
2018-11-10T09:07:36.018Z,99316.88
2018-11-10T09:10:07.457Z,99319.38
2018-11-10T09:12:37.260Z,99318.57
2018-11-10T09:15:09.833Z,99318.91
2018-11-10T09:17:39.724Z,99322.35
2018-11-10T09:20:12.145Z,99327.15
2018-11-10T09:22:42.658Z,99333.44
2018-11-10T09:25:14.531Z,99329.55
2018-11-10T09:27:46.618Z,99328.32
2018-11-10T09:30:17.340Z,99325.13
2018-11-10T09:32:47.358Z,99326.41
2018-11-10T09:35:17.476Z,99324.27
2018-11-10T09:37:47.334Z,99319.47
2018-11-10T09:40:19.689Z,99319.95
2018-11-10T09:42:56.890Z,99315.52
2018-11-10T09:45:27.954Z,99313.91
2018-11-10T09:47:58.386Z,99313.01
2018-11-10T09:50:28.630Z,99317.28
2018-11-10T09:52:59.164Z,99313.73
2018-11-10T09:55:29.293Z,99317.42
2018-11-10T09:57:59.438Z,99314.18
2018-11-10T10:00:35.008Z,99314.34
2018-11-10T10:03:05.461Z,99307.16
2018-11-10T10:05:37.633Z,99313.86
2018-11-10T10:08:07.632Z,99310.52
2018-11-10T10:10:38.494Z,99308.20
2018-11-10T10:13:08.699Z,99304.20
2018-11-10T10:15:39.273Z,99299.97
2018-11-10T10:18:09.723Z,99303.64
2018-11-10T10:20:39.513Z,99291.31
2018-11-10T10:23:10.682Z,99286.27
2018-11-10T10:25:43.607Z,99287.97
2018-11-10T10:28:14.707Z,99282.36
2018-11-10T10:30:45.665Z,99283.22
2018-11-10T10:33:15.853Z,99282.36
2018-11-10T10:35:45.537Z,99274.76
2018-11-10T10:38:17.617Z,99276.28
2018-11-10T10:40:48.862Z,99276.27
2018-11-10T10:43:18.752Z,99268.16
2018-11-10T10:45:48.847Z,99274.16
2018-11-10T10:48:21.791Z,99271.34
2018-11-10T10:50:53.678Z,99270.55
2018-11-10T10:53:24.901Z,99268.05
2018-11-10T10:55:55.763Z,99271.83
2018-11-10T10:58:27.753Z,99259.08
2018-11-10T11:01:03.042Z,99261.01
2018-11-10T11:03:39.742Z,99262.67
2018-11-10T11:06:11.834Z,99260.59
2018-11-10T11:08:42.703Z,99260.03
2018-11-10T11:11:13.795Z,99260.78
2018-11-10T11:13:53.878Z,99257.77
2018-11-10T11:16:24.881Z,99252.52
2018-11-10T11:18:54.970Z,99246.33
2018-11-10T11:21:25.027Z,99246.03
2018-11-10T11:23:56.011Z,99241.30
2018-11-10T11:26:25.754Z,99240.08
2018-11-10T11:28:56.096Z,99241.70
2018-11-10T11:31:26.942Z,99242.50
2018-11-10T11:33:59.716Z,99235.09
2018-11-10T11:36:29.979Z,99240.29
2018-11-10T11:39:00.979Z,99238.85
2018-11-10T11:41:32.078Z,99235.44
2018-11-10T11:44:02.244Z,99235.15
2018-11-10T11:46:32.031Z,99230.87
2018-11-10T11:49:03.187Z,99227.47
2018-11-10T11:51:32.847Z,99224.33
2018-11-10T11:54:05.188Z,99230.80
2018-11-10T11:56:36.526Z,99234.58
2018-11-10T11:59:07.118Z,99227.20
2018-11-10T12:01:38.235Z,99220.71
2018-11-10T12:04:09.290Z,99224.09
2018-11-10T12:06:39.481Z,99220.24
2018-11-10T12:09:11.301Z,99225.85
2018-11-10T12:11:41.459Z,99217.30
2018-11-10T12:14:11.530Z,99215.05
2018-11-10T12:16:41.988Z,99209.13
2018-11-10T12:19:12.302Z,99211.67
2018-11-10T12:21:43.004Z,99210.84
2018-11-10T12:24:13.277Z,99201.78
2018-11-10T12:26:44.161Z,99209.42
2018-11-10T12:29:14.186Z,99201.23
2018-11-10T12:31:45.083Z,99200.81
2018-11-10T12:34:15.436Z,99209.69
2018-11-10T12:36:46.218Z,99205.94
2018-11-10T12:39:16.355Z,99200.72
2018-11-10T12:41:46.271Z,99197.74
2018-11-10T12:44:17.476Z,99196.41
2018-11-10T12:46:47.765Z,99194.27
2018-11-10T12:49:18.396Z,99198.36
2018-11-10T12:51:48.550Z,99199.80
2018-11-10T12:54:20.016Z,99195.27
2018-11-10T12:56:49.647Z,99193.16
2018-11-10T12:59:20.084Z,99185.06
2018-11-10T13:01:50.562Z,99188.57
2018-11-10T13:04:21.254Z,99187.73
2018-11-10T13:06:51.439Z,99190.67
2018-11-10T13:09:22.002Z,99179.60
2018-11-10T13:11:52.587Z,99182.91
2018-11-10T13:14:23.238Z,99184.70
2018-11-10T13:16:53.389Z,99181.86
2018-11-10T13:19:23.896Z,99182.50
2018-11-10T13:21:54.635Z,99179.60
2018-11-10T13:24:24.903Z,99174.97
2018-11-10T13:26:55.671Z,99179.86
2018-11-10T13:29:26.399Z,99179.45
2018-11-10T13:31:56.254Z,99179.94
2018-11-10T13:34:26.847Z,99173.84
2018-11-10T13:36:56.564Z,99171.27
2018-11-10T13:39:27.606Z,99175.32
2018-11-10T13:41:58.073Z,99171.86
2018-11-10T13:44:28.717Z,99171.12
2018-11-10T13:46:58.734Z,99174.13
2018-11-10T13:49:29.665Z,99168.06
2018-11-10T13:52:00.973Z,99170.36
2018-11-10T13:54:30.657Z,99168.19
2018-11-10T13:57:01.677Z,99166.98
2018-11-10T13:59:32.924Z,99176.53
2018-11-10T14:02:02.603Z,99164.59
2018-11-10T14:04:33.826Z,99165.88
2018-11-10T14:07:04.408Z,99168.51
2018-11-10T14:09:34.653Z,99166.70
2018-11-10T14:12:05.928Z,99172.13
2018-11-10T14:14:35.694Z,99166.43
2018-11-10T14:17:06.465Z,99166.14
2018-11-10T14:19:36.969Z,99164.93
2018-11-10T14:22:10.715Z,99165.37
2018-11-10T14:24:40.594Z,99159.80
2018-11-10T14:27:10.754Z,99165.73
2018-11-10T14:29:40.367Z,99173.09
2018-11-10T14:32:11.663Z,99174.81
2018-11-10T14:34:42.819Z,99181.77
2018-11-10T14:37:13.669Z,99173.97
2018-11-10T14:39:44.009Z,99173.12
2018-11-10T14:42:13.973Z,99176.58
2018-11-10T14:44:44.754Z,99175.87
2018-11-10T14:47:14.929Z,99169.54
2018-11-10T14:49:45.393Z,99170.87
2018-11-10T14:52:18.558Z,99159.64
2018-11-10T14:54:53.868Z,99164.34
2018-11-10T14:57:25.912Z,99168.33
2018-11-10T14:59:55.935Z,99164.98
2018-11-10T15:02:27.698Z,99164.48
2018-11-10T15:05:00.189Z,99168.81
2018-11-10T15:07:30.692Z,99163.41
2018-11-10T15:10:01.001Z,99168.58
2018-11-10T15:12:31.678Z,99167.73
2018-11-10T15:15:01.322Z,99169.95
2018-11-10T15:17:32.389Z,99169.86
2018-11-10T15:20:03.000Z,99170.17
2018-11-10T15:22:34.943Z,99170.64
2018-11-10T15:25:08.907Z,99177.54
2018-11-10T15:27:39.659Z,99171.14
2018-11-10T15:30:13.794Z,99172.05
2018-11-10T15:32:46.746Z,99177.97
2018-11-10T15:35:19.131Z,99183.04
2018-11-10T15:37:50.291Z,99181.33
2018-11-10T15:40:22.520Z,99187.78
2018-11-10T15:42:52.978Z,99177.11
2018-11-10T15:45:23.600Z,99184.87
2018-11-10T15:47:53.221Z,99187.50
2018-11-10T15:50:24.011Z,99186.33
2018-11-10T15:52:54.991Z,99193.09
2018-11-10T15:55:25.152Z,99189.26
2018-11-10T15:57:59.072Z,99191.88
2018-11-10T16:00:29.171Z,99192.66
2018-11-10T16:03:00.088Z,99192.61
2018-11-10T16:05:30.088Z,99198.63
2018-11-10T16:08:00.243Z,99206.30
2018-11-10T16:10:30.598Z,99198.16
2018-11-10T16:13:01.054Z,99199.36
2018-11-10T16:15:35.954Z,99205.41
2018-11-10T16:18:09.417Z,99199.08
2018-11-10T16:20:39.747Z,99207.52
2018-11-10T16:23:12.153Z,99207.17
2018-11-10T16:25:43.144Z,99201.57
2018-11-10T16:28:13.171Z,99202.42
2018-11-10T16:30:44.081Z,99201.13
2018-11-10T16:33:16.005Z,99203.87
2018-11-10T16:35:46.120Z,99205.92
2018-11-10T16:38:16.506Z,99207.42
2018-11-10T16:40:46.308Z,99211.80
2018-11-10T16:43:17.419Z,99205.91
2018-11-10T16:45:49.210Z,99210.16
2018-11-10T16:48:20.411Z,99209.97
2018-11-10T16:50:51.879Z,99206.33
2018-11-10T16:53:25.416Z,99213.02
2018-11-10T16:55:57.355Z,99204.50
2018-11-10T16:58:29.231Z,99207.76
2018-11-10T17:01:00.358Z,99208.44
2018-11-10T17:03:31.247Z,99212.94
2018-11-10T17:06:01.322Z,99213.47
2018-11-10T17:08:32.297Z,99211.25
2018-11-10T17:11:03.279Z,99209.78
2018-11-10T17:13:33.428Z,99205.80
2018-11-10T17:16:03.448Z,99204.28
2018-11-10T17:18:33.235Z,99201.09
2018-11-10T17:21:05.186Z,99199.52
2018-11-10T17:23:39.571Z,99200.73
2018-11-10T17:26:11.652Z,99204.00
2018-11-10T17:28:43.325Z,99206.69
2018-11-10T17:31:15.542Z,99207.70
2018-11-10T17:33:45.871Z,99212.09
2018-11-10T17:36:16.494Z,99205.05
2018-11-10T17:38:46.722Z,99209.31
2018-11-10T17:41:17.339Z,99195.50
2018-11-10T17:43:47.999Z,99199.41
2018-11-10T17:46:18.310Z,99195.92
2018-11-10T17:48:48.675Z,99201.97
2018-11-10T17:51:19.071Z,99199.03
2018-11-10T17:53:49.432Z,99204.15
2018-11-10T17:56:20.528Z,99203.66
2018-11-10T17:58:50.856Z,99203.98
2018-11-10T18:01:21.201Z,99204.15
2018-11-10T18:03:57.470Z,99207.02
2018-11-10T18:06:28.654Z,99207.73
2018-11-10T18:08:58.601Z,99207.01
2018-11-10T18:11:29.602Z,99205.50
2018-11-10T18:13:59.875Z,99200.89
2018-11-10T18:16:30.734Z,99197.53
2018-11-10T18:19:02.621Z,99204.78
2018-11-10T18:21:34.711Z,99196.23
2018-11-10T18:24:05.925Z,99196.73
2018-11-10T18:26:37.730Z,99195.34
2018-11-10T18:29:10.038Z,99197.81
2018-11-10T18:31:39.993Z,99193.92
2018-11-10T18:34:12.447Z,99195.26
2018-11-10T18:36:44.110Z,99195.98
2018-11-10T18:39:18.559Z,99196.37
2018-11-10T18:41:49.454Z,99192.71
2018-11-10T18:44:26.379Z,99196.69
2018-11-10T18:46:59.091Z,99193.70
2018-11-10T18:49:30.083Z,99193.70
2018-11-10T18:51:59.749Z,99189.86
2018-11-10T18:54:30.799Z,99189.73
2018-11-10T18:57:00.901Z,99190.29
2018-11-10T18:59:30.807Z,99188.44
2018-11-10T19:02:02.890Z,99187.59
2018-11-10T19:04:34.716Z,99183.73
2018-11-10T19:07:06.035Z,99188.20
2018-11-10T19:09:36.486Z,99182.11
2018-11-10T19:12:07.186Z,99189.90
2018-11-10T19:14:37.627Z,99184.53
2018-11-10T19:17:07.860Z,99191.94
2018-11-10T19:19:38.867Z,99189.06
2018-11-10T19:22:08.991Z,99186.45
2018-11-10T19:24:45.235Z,99196.30
2018-11-10T19:27:17.098Z,99197.66
2018-11-10T19:29:47.968Z,99198.47
2018-11-10T19:32:20.028Z,99198.47
2018-11-10T19:34:54.319Z,99200.23
2018-11-10T19:37:27.995Z,99198.99
2018-11-10T19:39:59.166Z,99202.97
2018-11-10T19:42:29.990Z,99199.61
2018-11-10T19:45:00.919Z,99204.48
2018-11-10T19:47:31.072Z,99200.66
2018-11-10T19:50:08.273Z,99198.47
2018-11-10T19:52:39.298Z,99200.94
2018-11-10T19:55:12.467Z,99199.74
2018-11-10T19:57:43.212Z,99196.44
2018-11-10T20:00:16.318Z,99192.34
2018-11-10T20:02:46.089Z,99193.03
2018-11-10T20:05:17.686Z,99191.69
2018-11-10T20:07:49.119Z,99194.07
2018-11-10T20:10:21.161Z,99200.84
2018-11-10T20:12:52.188Z,99189.87
2018-11-10T20:15:22.095Z,99198.95
2018-11-10T20:17:52.377Z,99188.30
2018-11-10T20:20:23.215Z,99189.50
2018-11-10T20:22:54.461Z,99191.14
2018-11-10T20:25:24.154Z,99192.48
2018-11-10T20:27:55.579Z,99189.56
2018-11-10T20:30:25.178Z,99188.11
2018-11-10T20:32:56.403Z,99186.16
2018-11-10T20:35:27.393Z,99185.00
2018-11-10T20:38:02.507Z,99184.51
2018-11-10T20:40:34.439Z,99190.55
2018-11-10T20:43:05.478Z,99183.47
2018-11-10T20:45:35.964Z,99181.16
2018-11-10T20:48:06.449Z,99182.94
2018-11-10T20:50:36.198Z,99189.40
2018-11-10T20:53:06.409Z,99184.59
2018-11-10T20:55:37.386Z,99182.98
2018-11-10T20:58:08.573Z,99179.23
2018-11-10T21:00:39.484Z,99182.09
2018-11-10T21:03:12.278Z,99180.08
2018-11-10T21:05:43.628Z,99176.53
2018-11-10T21:08:13.456Z,99178.17
2018-11-10T21:10:44.160Z,99172.63
2018-11-10T21:13:16.596Z,99171.86
2018-11-10T21:15:46.491Z,99179.53
2018-11-10T21:18:17.608Z,99179.02
2018-11-10T21:20:49.392Z,99182.63
2018-11-10T21:23:19.798Z,99181.77
2018-11-10T21:25:49.685Z,99178.41
2018-11-10T21:28:21.614Z,99173.08
2018-11-10T21:30:52.331Z,99177.58
2018-11-10T21:33:24.058Z,99183.42
2018-11-10T21:35:54.487Z,99181.36
2018-11-10T21:38:25.111Z,99182.31
2018-11-10T21:40:55.627Z,99173.68
2018-11-10T21:43:26.083Z,99168.18
2018-11-10T21:45:56.806Z,99163.08
2018-11-10T21:48:26.538Z,99161.08
2018-11-10T21:50:57.643Z,99161.13
2018-11-10T21:53:27.822Z,99161.56
2018-11-10T21:55:58.501Z,99168.06
2018-11-10T21:58:28.767Z,99161.00
2018-11-10T22:00:59.435Z,99161.73
2018-11-10T22:03:29.934Z,99159.78
2018-11-10T22:06:00.536Z,99160.88
2018-11-10T22:08:30.866Z,99156.31
2018-11-10T22:11:01.921Z,99165.77
2018-11-10T22:13:34.888Z,99161.97
2018-11-10T22:16:06.160Z,99160.39
2018-11-10T22:18:35.847Z,99162.11
2018-11-10T22:21:06.880Z,99162.95
2018-11-10T22:23:37.129Z,99163.68
2018-11-10T22:26:10.011Z,99167.16
2018-11-10T22:28:40.488Z,99161.38
2018-11-10T22:31:11.749Z,99153.34
2018-11-10T22:33:41.374Z,99154.62
2018-11-10T22:36:16.890Z,99154.08
2018-11-10T22:38:46.999Z,99150.20
2018-11-10T22:41:19.901Z,99152.86
2018-11-10T22:43:51.188Z,99158.29
2018-11-10T22:46:23.029Z,99157.39
2018-11-10T22:48:52.734Z,99156.92
2018-11-10T22:51:23.043Z,99159.55
2018-11-10T22:53:53.083Z,99154.52
2018-11-10T22:56:24.845Z,99150.11
2018-11-10T22:58:57.275Z,99146.84
2018-11-10T23:01:32.800Z,99148.24
2018-11-10T23:04:04.648Z,99147.32
2018-11-10T23:06:37.170Z,99150.92
2018-11-10T23:09:09.490Z,99152.14
2018-11-10T23:11:40.449Z,99143.66
2018-11-10T23:14:15.093Z,99151.29
2018-11-10T23:16:44.627Z,99149.81
2018-11-10T23:19:14.946Z,99144.28
2018-11-10T23:21:44.638Z,99150.78
2018-11-10T23:24:16.900Z,99143.50
2018-11-10T23:26:47.265Z,99142.16
2018-11-10T23:29:17.196Z,99138.80
2018-11-10T23:31:46.952Z,99139.17
2018-11-10T23:34:17.907Z,99145.56
2018-11-10T23:36:51.943Z,99134.97
2018-11-10T23:39:22.063Z,99130.72
2018-11-10T23:41:53.186Z,99133.39
2018-11-10T23:44:23.068Z,99131.20
2018-11-10T23:46:54.264Z,99132.84
2018-11-10T23:49:25.174Z,99133.70
2018-11-10T23:51:55.036Z,99132.89
2018-11-10T23:54:26.355Z,99138.13
2018-11-10T23:56:57.122Z,99134.86
2018-11-10T23:59:27.882Z,99136.00
